Time;durP1;ratioP1;P1;durP2;ratioP2;P2;SDS_P1;SDS_P2;PMS_P1;PMS_P2;Temp;Humidity;BMP_temperature;BMP_pressure;BME280_temperature;BME280_humidity;BME280_pressure;Samples;Min_cycle;Max_cycle;Signal;HPM_P1;HPM_P2
2021/08/24 00:00:16;;;;;;;0.95;0.55;;;14.40;99.90;;;;;;10367601;28;20107;-65
2021/08/24 00:05:31;;;;;;;2.30;0.50;;;14.40;99.90;;;;;;10371859;28;20053;-64
2021/08/24 00:10:38;;;;;;;2.58;0.73;;;14.30;99.90;;;;;;10371981;28;20075;-65
2021/08/24 00:15:40;;;;;;;3.38;0.70;;;14.20;99.90;;;;;;10365422;28;20046;-64
2021/08/24 00:20:46;;;;;;;4.15;1.02;;;14.10;99.90;;;;;;10368729;28;20481;-65
2021/08/24 00:25:49;;;;;;;0.90;0.50;;;14.10;99.90;;;;;;10368683;28;20115;-64
2021/08/24 00:30:51;;;;;;;2.78;1.10;;;14.10;99.90;;;;;;10370554;28;20095;-64
2021/08/24 00:35:53;;;;;;;2.53;0.70;;;14.00;99.90;;;;;;10370159;28;20115;-64
2021/08/24 00:41:01;;;;;;;4.47;0.75;;;14.00;99.90;;;;;;10372368;28;20563;-64
2021/08/24 00:46:26;;;;;;;1.65;0.85;;;13.90;99.90;;;;;;10370391;28;20045;-64
2021/08/24 00:51:32;;;;;;;2.30;0.60;;;13.80;99.90;;;;;;10370325;28;20044;-64
2021/08/24 00:56:34;;;;;;;1.67;0.60;;;13.80;99.90;;;;;;10368548;28;20049;-65
2021/08/24 01:01:36;;;;;;;3.55;0.55;;;13.80;99.90;;;;;;10362873;28;20138;-64
2021/08/24 01:06:58;;;;;;;1.77;0.60;;;13.80;99.90;;;;;;10381868;28;20053;-64
2021/08/24 01:11:59;;;;;;;2.85;1.02;;;13.80;99.90;;;;;;10367599;28;20123;-64
2021/08/24 01:17:25;;;;;;;1.58;0.65;;;13.70;99.90;;;;;;10365763;28;20135;-64
2021/08/24 01:29:01;;;;;;;2.88;0.60;;;13.70;99.90;;;;;;10363449;28;20053;-64
2021/08/24 01:34:25;;;;;;;1.75;0.68;;;13.70;99.90;;;;;;10364273;28;20072;-64
2021/08/24 01:39:53;;;;;;;1.20;0.50;;;13.70;99.90;;;;;;10384933;28;23507;-64
2021/08/24 01:45:17;;;;;;;2.97;0.50;;;13.60;99.90;;;;;;10357937;28;20104;-64
2021/08/24 01:50:33;;;;;;;2.40;0.50;;;13.60;99.90;;;;;;10367818;28;20085;-64
2021/08/24 01:55:49;;;;;;;4.25;0.70;;;13.60;99.90;;;;;;10368525;28;20492;-64
2021/08/24 02:00:54;;;;;;;1.25;0.50;;;13.50;99.90;;;;;;10365222;28;20049;-64
2021/08/24 02:06:01;;;;;;;1.02;0.60;;;13.40;99.90;;;;;;10367100;28;20046;-64
2021/08/24 02:11:05;;;;;;;2.80;0.70;;;13.40;99.90;;;;;;10369974;28;20072;-63
2021/08/24 02:16:10;;;;;;;1.30;0.52;;;13.30;99.90;;;;;;10365345;28;20336;-64
2021/08/24 02:21:18;;;;;;;1.33;0.52;;;13.30;99.90;;;;;;10372080;28;20054;-63
2021/08/24 02:26:24;;;;;;;2.90;0.50;;;13.20;99.90;;;;;;10367053;28;20103;-64
2021/08/24 02:31:50;;;;;;;1.25;0.50;;;13.20;99.90;;;;;;10369252;28;20053;-64
2021/08/24 02:37:23;;;;;;;2.45;0.80;;;13.20;99.90;;;;;;10367305;28;20049;-63
2021/08/24 02:42:44;;;;;;;0.95;0.40;;;13.20;99.90;;;;;;10360980;28;20057;-64
2021/08/24 02:47:47;;;;;;;1.67;0.57;;;13.10;99.90;;;;;;10367733;28;20485;-63
2021/08/24 02:52:49;;;;;;;3.35;0.47;;;13.10;99.90;;;;;;10365187;28;20132;-63
2021/08/24 02:57:51;;;;;;;2.35;0.55;;;13.00;99.90;;;;;;10363272;28;20050;-63
2021/08/24 03:02:53;;;;;;;2.35;0.70;;;12.90;99.90;;;;;;10365398;28;20050;-64
2021/08/24 03:07:56;;;;;;;8.25;0.82;;;12.90;99.90;;;;;;10361009;28;20049;-64
2021/08/24 03:13:11;;;;;;;0.93;0.52;;;12.90;99.90;;;;;;10365575;28;20077;-64
2021/08/24 03:18:20;;;;;;;1.52;0.60;;;12.90;99.90;;;;;;10360730;28;20099;-63
2021/08/24 03:23:24;;;;;;;2.60;0.60;;;12.80;99.90;;;;;;10365284;28;20741;-64
2021/08/24 03:28:26;;;;;;;1.38;0.45;;;12.70;99.90;;;;;;10369346;28;20114;-64
2021/08/24 03:33:28;;;;;;;3.58;0.88;;;12.70;99.90;;;;;;10376226;28;20053;-64
2021/08/24 03:38:30;;;;;;;2.45;0.50;;;12.60;99.90;;;;;;10373609;28;20050;-64
2021/08/24 03:43:32;;;;;;;1.33;0.60;;;12.60;99.90;;;;;;10368477;28;20041;-63
2021/08/24 03:48:34;;;;;;;4.47;0.45;;;12.50;99.90;;;;;;10373323;28;20073;-63
2021/08/24 03:53:36;;;;;;;4.72;0.52;;;12.50;99.90;;;;;;10367104;28;20444;-64
2021/08/24 03:58:39;;;;;;;2.55;0.50;;;12.40;99.90;;;;;;10372282;28;20531;-63
2021/08/24 04:03:41;;;;;;;1.95;0.63;;;12.40;99.90;;;;;;10368947;28;20111;-63
2021/08/24 04:08:42;;;;;;;1.80;0.50;;;12.30;99.90;;;;;;10366835;28;20542;-63
2021/08/24 04:13:44;;;;;;;1.83;0.50;;;12.30;99.90;;;;;;10373430;28;20049;-65
2021/08/24 04:18:46;;;;;;;1.83;0.60;;;12.20;99.90;;;;;;10373058;28;20096;-64
2021/08/24 04:23:49;;;;;;;3.03;0.60;;;12.10;99.90;;;;;;10370796;28;20098;-64
2021/08/24 04:28:50;;;;;;;3.65;0.90;;;12.00;99.90;;;;;;10370783;28;20102;-69
2021/08/24 04:33:52;;;;;;;2.13;1.42;;;11.90;99.90;;;;;;10372474;28;20050;-69
2021/08/24 04:38:54;;;;;;;4.15;0.77;;;11.90;99.90;;;;;;10367683;28;20496;-69
2021/08/24 04:43:55;;;;;;;3.95;0.70;;;11.90;99.90;;;;;;10366473;28;20049;-69
2021/08/24 04:48:57;;;;;;;4.38;0.73;;;11.90;99.90;;;;;;10353708;28;22148;-69
2021/08/24 04:53:58;;;;;;;2.17;0.73;;;11.80;99.90;;;;;;10370583;28;20092;-69
2021/08/24 04:59:00;;;;;;;8.32;2.33;;;11.80;99.90;;;;;;10382760;28;20119;-69
2021/08/24 05:04:02;;;;;;;1.77;0.70;;;11.80;99.90;;;;;;10366031;28;20076;-69
2021/08/24 05:09:04;;;;;;;1.65;0.60;;;11.80;99.90;;;;;;10365831;28;20046;-69
2021/08/24 05:14:05;;;;;;;7.03;1.25;;;11.80;99.90;;;;;;10367690;28;20140;-69
2021/08/24 05:19:08;;;;;;;2.40;0.90;;;11.90;99.90;;;;;;10368890;28;20041;-69
2021/08/24 05:24:09;;;;;;;1.88;0.50;;;11.90;99.90;;;;;;10366289;28;20551;-69
2021/08/24 05:29:13;;;;;;;2.83;0.75;;;12.00;99.90;;;;;;10369696;28;20053;-68
2021/08/24 05:34:15;;;;;;;1.55;0.50;;;12.10;99.90;;;;;;10369355;28;20439;-69
2021/08/24 05:39:16;;;;;;;1.73;0.40;;;12.20;99.90;;;;;;10364202;28;20493;-69
2021/08/24 05:44:18;;;;;;;2.17;0.60;;;12.40;99.90;;;;;;10367463;28;20049;-68
2021/08/24 05:49:20;;;;;;;2.45;0.65;;;12.50;99.90;;;;;;10370408;28;20100;-69
2021/08/24 05:54:21;;;;;;;1.60;0.60;;;12.60;99.90;;;;;;10366042;28;20080;-69
2021/08/24 05:59:23;;;;;;;1.85;0.30;;;12.70;99.90;;;;;;10366583;28;20080;-69
2021/08/24 06:04:26;;;;;;;0.60;0.40;;;12.90;99.90;;;;;;10371081;28;20057;-69
2021/08/24 06:09:28;;;;;;;2.33;0.40;;;13.10;99.90;;;;;;10365848;28;20089;-69
2021/08/24 06:14:30;;;;;;;1.17;0.50;;;13.30;99.90;;;;;;10369099;28;20091;-66
2021/08/24 06:19:31;;;;;;;1.08;0.40;;;13.60;99.90;;;;;;10364316;28;20665;-66
2021/08/24 06:24:36;;;;;;;1.42;0.40;;;13.80;99.90;;;;;;10364685;28;20053;-66
2021/08/24 06:29:37;;;;;;;1.17;0.57;;;14.00;99.90;;;;;;10368349;28;20046;-66
2021/08/24 06:34:39;;;;;;;3.05;0.40;;;14.10;99.90;;;;;;10363286;28;20432;-66
2021/08/24 06:39:41;;;;;;;1.17;0.43;;;14.10;99.90;;;;;;10364441;28;20073;-66
2021/08/24 06:44:43;;;;;;;2.00;0.47;;;14.20;99.90;;;;;;10362173;28;20107;-66
2021/08/24 06:49:45;;;;;;;3.90;0.50;;;14.30;99.90;;;;;;10361252;28;20427;-66
2021/08/24 06:54:46;;;;;;;2.05;0.80;;;14.30;99.90;;;;;;10360219;28;20049;-66
2021/08/24 06:59:48;;;;;;;2.22;0.80;;;14.40;99.90;;;;;;10365085;28;20053;-66
2021/08/24 07:04:49;;;;;;;0.70;0.35;;;14.40;99.90;;;;;;10367471;28;20143;-67
2021/08/24 07:09:51;;;;;;;3.60;0.60;;;14.50;99.90;;;;;;10362739;28;20053;-66
2021/08/24 07:14:53;;;;;;;2.40;0.50;;;14.60;99.90;;;;;;10365581;28;20132;-65
2021/08/24 07:19:55;;;;;;;1.90;0.40;;;14.70;99.90;;;;;;10357814;28;20096;-65
2021/08/24 07:24:56;;;;;;;2.00;0.50;;;14.80;99.90;;;;;;10363945;28;20069;-66
2021/08/24 07:29:58;;;;;;;1.90;0.40;;;14.80;99.90;;;;;;10363689;28;20088;-65
2021/08/24 07:35:00;;;;;;;0.55;0.30;;;14.90;99.90;;;;;;10362865;28;20041;-66
2021/08/24 07:40:05;;;;;;;3.55;0.73;;;15.00;99.90;;;;;;10360816;28;20103;-66
2021/08/24 07:45:08;;;;;;;3.72;0.50;;;15.10;99.90;;;;;;10363002;28;20050;-66
2021/08/24 07:50:10;;;;;;;4.13;0.65;;;15.20;99.90;;;;;;10360810;28;20080;-66
2021/08/24 07:55:12;;;;;;;2.38;0.47;;;15.30;99.90;;;;;;10363555;28;20076;-66
2021/08/24 08:00:14;;;;;;;1.00;0.40;;;15.50;99.90;;;;;;10366759;28;20050;-66
2021/08/24 08:05:17;;;;;;;2.22;0.30;;;15.50;99.90;;;;;;10369875;28;20046;-66
2021/08/24 08:10:19;;;;;;;3.22;0.52;;;15.60;99.90;;;;;;10362852;28;20528;-65
2021/08/24 08:15:23;;;;;;;2.78;0.40;;;15.60;99.90;;;;;;10368341;28;20045;-66
2021/08/24 08:20:25;;;;;;;1.00;0.40;;;15.90;99.90;;;;;;10370687;28;20062;-66
2021/08/24 08:25:27;;;;;;;1.27;0.35;;;16.00;99.90;;;;;;10370339;28;20450;-66
2021/08/24 08:30:30;;;;;;;0.90;0.40;;;16.10;99.90;;;;;;10372232;28;20060;-66
2021/08/24 08:35:32;;;;;;;3.25;0.75;;;16.10;99.90;;;;;;10368175;28;20046;-66
2021/08/24 08:41:04;;;;;;;0.65;0.40;;;16.20;99.90;;;;;;10364501;28;20080;-66
2021/08/24 08:46:13;;;;;;;1.30;0.45;;;16.30;99.90;;;;;;10345868;28;20060;-66
2021/08/24 08:51:31;;;;;;;0.85;0.40;;;16.30;99.90;;;;;;10365231;28;20077;-66
2021/08/24 08:57:03;;;;;;;1.65;0.50;;;16.50;99.90;;;;;;10368301;28;20057;-65
2021/08/24 09:02:26;;;;;;;1.45;0.80;;;16.70;99.90;;;;;;10364596;28;20144;-65
2021/08/24 09:07:41;;;;;;;4.40;0.70;;;16.90;99.90;;;;;;10355263;28;20095;-65
2021/08/24 09:12:48;;;;;;;2.88;1.30;;;17.00;99.90;;;;;;10366343;28;20056;-65
2021/08/24 09:17:51;;;;;;;2.70;0.85;;;17.00;99.90;;;;;;10357427;28;20091;-65
2021/08/24 09:22:53;;;;;;;2.20;0.50;;;17.10;99.90;;;;;;10369171;28;20045;-65
2021/08/24 09:28:36;;;;;;;2.85;0.57;;;17.30;99.90;;;;;;10368177;28;20052;-65
2021/08/24 09:33:37;;;;;;;0.65;0.40;;;17.60;99.90;;;;;;10363556;28;20518;-65
2021/08/24 09:38:53;;;;;;;1.60;0.60;;;17.50;99.90;;;;;;10370220;28;20107;-65
2021/08/24 09:43:58;;;;;;;2.53;0.50;;;17.70;99.90;;;;;;10365742;28;20049;-65
2021/08/24 09:49:22;;;;;;;2.22;0.60;;;18.00;99.90;;;;;;10366351;28;20050;-65
2021/08/24 09:54:41;;;;;;;2.33;0.90;;;18.10;99.90;;;;;;10364594;28;20042;-65
2021/08/24 10:00:01;;;;;;;3.00;0.68;;;18.20;99.90;;;;;;10362236;28;20412;-65
2021/08/24 10:05:03;;;;;;;1.35;0.68;;;18.60;99.90;;;;;;10373280;28;20053;-65
2021/08/24 10:10:28;;;;;;;1.52;0.57;;;18.80;99.90;;;;;;10360968;28;20054;-65
2021/08/24 10:15:36;;;;;;;2.45;0.82;;;19.20;99.90;;;;;;10362041;28;20057;-65
2021/08/24 10:21:02;;;;;;;1.70;0.60;;;19.00;99.90;;;;;;10365657;28;20050;-66
2021/08/24 10:26:08;;;;;;;1.27;0.50;;;19.00;99.90;;;;;;10361894;28;20452;-66
2021/08/24 10:31:30;;;;;;;3.13;0.50;;;18.90;99.90;;;;;;10361639;28;20099;-66
2021/08/24 10:36:40;;;;;;;1.85;0.60;;;19.20;99.90;;;;;;10363801;28;20061;-66
2021/08/24 10:41:49;;;;;;;2.45;0.80;;;19.70;99.90;;;;;;10358884;28;20049;-66
2021/08/24 10:47:14;;;;;;;1.83;0.68;;;19.70;99.90;;;;;;10363609;28;20107;-66
2021/08/24 10:52:37;;;;;;;2.60;0.57;;;19.90;99.90;;;;;;10324094;28;20494;-66
2021/08/24 10:57:59;;;;;;;1.38;0.60;;;20.40;99.90;;;;;;10365844;28;20050;-66
2021/08/24 11:03:22;;;;;;;2.00;0.50;;;20.80;99.90;;;;;;10358690;28;20057;-65
2021/08/24 11:08:42;;;;;;;0.88;0.60;;;20.90;99.90;;;;;;10362789;28;20103;-64
2021/08/24 11:14:10;;;;;;;0.98;0.60;;;21.10;99.90;;;;;;10361852;28;20065;-65
2021/08/24 11:19:48;;;;;;;4.60;1.35;;;21.10;99.90;;;;;;10359356;28;20057;-64
2021/08/24 11:25:36;;;;;;;3.10;0.70;;;20.80;99.90;;;;;;10364961;28;20077;-64
2021/08/24 11:30:50;;;;;;;2.60;0.90;;;21.20;99.90;;;;;;10360003;28;20053;-64
2021/08/24 11:36:11;;;;;;;2.58;1.13;;;20.80;99.90;;;;;;10369147;28;20064;-65
2021/08/24 11:41:20;;;;;;;3.13;1.33;;;21.20;99.90;;;;;;10364534;28;20077;-64
2021/08/24 11:46:28;;;;;;;1.17;0.73;;;21.20;99.90;;;;;;10369675;28;20049;-63
2021/08/24 11:51:33;;;;;;;2.15;0.80;;;20.80;99.90;;;;;;10373707;28;20469;-63
2021/08/24 11:56:54;;;;;;;1.37;0.70;;;20.60;99.90;;;;;;10368779;28;20053;-63
2021/08/24 12:01:55;;;;;;;2.25;0.85;;;20.40;99.90;;;;;;10371940;28;20470;-69
2021/08/24 12:07:09;;;;;;;1.75;0.90;;;20.10;99.90;;;;;;10373881;28;20370;-69
2021/08/24 12:12:17;;;;;;;3.35;1.13;;;20.00;99.90;;;;;;10370319;28;20049;-69
2021/08/24 12:17:58;;;;;;;2.00;0.88;;;20.00;99.90;;;;;;10366362;28;20053;-69
2021/08/24 12:23:02;;;;;;;2.60;0.98;;;20.20;99.90;;;;;;10369604;28;20116;-68
2021/08/24 12:28:15;;;;;;;4.45;1.00;;;19.90;99.90;;;;;;10373141;28;20053;-68
2021/08/24 12:33:44;;;;;;;3.72;1.23;;;19.90;99.90;;;;;;10369118;28;20143;-68
2021/08/24 12:38:54;;;;;;;4.22;1.23;;;19.90;99.90;;;;;;10365239;28;20045;-68
2021/08/24 12:44:19;;;;;;;2.28;0.85;;;19.80;99.90;;;;;;10369937;28;20072;-68
2021/08/24 12:49:20;;;;;;;2.45;0.80;;;19.70;99.90;;;;;;10368389;28;20049;-69
2021/08/24 12:54:29;;;;;;;2.47;1.38;;;19.80;99.90;;;;;;10371086;28;20124;-69
2021/08/24 12:59:38;;;;;;;3.28;0.90;;;20.20;99.90;;;;;;10378685;28;20141;-69
2021/08/24 13:04:48;;;;;;;3.28;1.25;;;20.80;99.90;;;;;;10363794;28;20050;-69
2021/08/24 13:09:53;;;;;;;2.80;0.98;;;21.10;99.90;;;;;;10369641;28;20111;-69
2021/08/24 13:14:57;;;;;;;2.07;1.00;;;21.20;99.90;;;;;;10369772;28;20050;-68
2021/08/24 13:20:02;;;;;;;2.20;0.77;;;21.40;99.70;;;;;;10367685;28;20535;-69
2021/08/24 13:25:04;;;;;;;3.20;0.80;;;22.10;99.20;;;;;;10371625;28;20131;-70
2021/08/24 13:30:11;;;;;;;1.55;0.57;;;22.90;96.80;;;;;;10365115;28;20046;-70
2021/08/24 13:35:20;;;;;;;1.88;0.82;;;23.50;95.80;;;;;;10362159;28;20557;-70
2021/08/24 13:40:28;;;;;;;3.33;0.80;;;23.70;94.60;;;;;;10366507;28;20045;-70
2021/08/24 13:45:34;;;;;;;0.95;0.60;;;23.90;93.40;;;;;;10362831;28;20093;-70
2021/08/24 13:50:38;;;;;;;2.85;0.68;;;24.40;92.60;;;;;;10367993;28;20038;-70
2021/08/24 13:55:41;;;;;;;2.95;0.95;;;24.90;91.40;;;;;;10363435;28;20045;-70
2021/08/24 14:00:56;;;;;;;2.72;0.77;;;24.90;90.10;;;;;;10360227;28;20053;-61
2021/08/24 14:06:03;;;;;;;1.73;0.60;;;25.90;87.60;;;;;;10365976;28;20053;-71
2021/08/24 14:11:06;;;;;;;1.67;0.63;;;26.20;83.20;;;;;;10367981;28;20087;-70
2021/08/24 14:16:14;;;;;;;1.88;0.60;;;26.20;83.20;;;;;;10336460;28;20056;-70
2021/08/24 14:21:17;;;;;;;5.38;0.85;;;26.30;80.70;;;;;;10371548;28;20101;-70
2021/08/24 14:26:37;;;;;;;2.38;0.70;;;26.80;80.70;;;;;;10366097;28;20473;-70
2021/08/24 14:31:43;;;;;;;4.38;1.05;;;26.40;77.90;;;;;;10366096;28;20065;-72
2021/08/24 14:36:56;;;;;;;1.63;0.68;;;26.30;77.30;;;;;;10359958;28;20042;-72
2021/08/24 14:42:01;;;;;;;3.50;0.68;;;26.90;75.80;;;;;;10363031;28;20057;-72
2021/08/24 14:47:19;;;;;;;1.27;0.60;;;26.70;77.20;;;;;;10370164;28;20134;-72
2021/08/24 14:52:30;;;;;;;1.25;0.52;;;26.70;75.90;;;;;;10361791;28;20054;-74
2021/08/24 14:57:31;;;;;;;1.42;0.60;;;26.40;76.10;;;;;;10353944;28;20049;-61
2021/08/24 15:02:45;;;;;;;0.80;0.50;;;26.00;77.20;;;;;;10370367;28;20103;-61
2021/08/24 15:08:12;;;;;;;1.88;0.70;;;26.00;76.10;;;;;;10363005;28;20073;-61
2021/08/24 15:13:21;;;;;;;1.50;0.52;;;25.60;75.60;;;;;;10363931;28;20049;-60
2021/08/24 15:18:28;;;;;;;3.78;0.75;;;25.30;75.50;;;;;;10367774;28;20053;-62
2021/08/24 15:23:33;;;;;;;2.08;0.82;;;25.10;77.30;;;;;;10372977;28;20452;-62
2021/08/24 15:28:35;;;;;;;2.93;0.80;;;25.00;76.40;;;;;;10378451;28;20041;-62
2021/08/24 15:33:51;;;;;;;4.35;0.60;;;25.00;77.60;;;;;;10373385;28;20049;-61
2021/08/24 15:38:55;;;;;;;4.50;0.85;;;24.70;76.20;;;;;;10370098;28;20048;-61
2021/08/24 15:44:12;;;;;;;2.70;0.52;;;24.70;78.10;;;;;;10371954;28;20054;-62
2021/08/24 15:49:19;;;;;;;1.45;0.60;;;24.50;76.90;;;;;;10372494;28;20054;-61
2021/08/24 15:54:21;;;;;;;0.95;0.60;;;24.30;75.90;;;;;;10368873;28;20160;-61
2021/08/24 15:59:30;;;;;;;1.58;0.68;;;24.00;77.70;;;;;;10387648;28;20073;-62
2021/08/24 16:04:32;;;;;;;1.85;0.75;;;24.40;80.10;;;;;;10363837;28;20069;-62
2021/08/24 16:09:34;;;;;;;1.05;0.60;;;24.20;78.10;;;;;;10359152;28;20041;-62
2021/08/24 16:14:36;;;;;;;1.35;0.60;;;24.20;74.70;;;;;;10373200;28;20581;-62
2021/08/24 16:19:39;;;;;;;2.70;0.60;;;23.80;74.20;;;;;;10360418;28;20057;-62
2021/08/24 16:24:40;;;;;;;2.55;0.55;;;23.40;76.20;;;;;;10367092;28;20100;-61
2021/08/24 16:29:44;;;;;;;2.13;1.05;;;23.10;77.70;;;;;;10354451;28;20400;-61
2021/08/24 16:34:48;;;;;;;1.55;0.75;;;22.80;78.50;;;;;;10368496;28;20069;-63
2021/08/24 16:39:51;;;;;;;1.95;0.85;;;22.60;79.20;;;;;;10369660;28;20041;-62
2021/08/24 16:44:53;;;;;;;2.33;0.90;;;22.50;79.50;;;;;;10368876;28;20154;-63
2021/08/24 16:49:55;;;;;;;1.70;0.63;;;22.50;79.20;;;;;;10365257;28;20108;-69
2021/08/24 16:54:57;;;;;;;3.55;0.93;;;22.60;79.00;;;;;;10365877;28;20103;-68
2021/08/24 16:59:58;;;;;;;2.17;0.82;;;22.50;78.80;;;;;;10365536;28;20103;-68
2021/08/24 17:05:01;;;;;;;3.50;0.90;;;22.30;79.70;;;;;;10369585;28;20510;-70
2021/08/24 17:10:05;;;;;;;1.55;0.82;;;22.00;79.50;;;;;;10365142;28;20140;-68
2021/08/24 17:15:10;;;;;;;3.58;0.77;;;21.60;80.30;;;;;;10372492;28;20049;-69
2021/08/24 17:20:12;;;;;;;1.27;0.63;;;21.40;82.50;;;;;;10365342;28;20060;-67
2021/08/24 17:25:40;;;;;;;2.75;1.13;;;21.20;84.20;;;;;;10378236;28;20215;-69
2021/08/24 17:30:43;;;;;;;3.95;0.80;;;21.00;85.60;;;;;;10358319;28;20045;-69
2021/08/24 17:35:48;;;;;;;4.75;0.82;;;20.80;87.40;;;;;;10359485;28;20054;-70
2021/08/24 17:40:51;;;;;;;3.75;0.75;;;20.50;87.40;;;;;;10366807;28;20153;-71
2021/08/24 17:45:55;;;;;;;4.10;1.17;;;20.30;88.10;;;;;;10365194;28;20041;-69
2021/08/24 17:51:13;;;;;;;2.15;0.80;;;20.10;89.20;;;;;;10367319;28;20061;-67
2021/08/24 17:56:19;;;;;;;1.55;0.60;;;19.90;89.10;;;;;;10355982;28;20053;-66
2021/08/24 18:01:22;;;;;;;3.63;0.95;;;19.70;90.40;;;;;;10352808;28;20096;-66
2021/08/24 18:06:33;;;;;;;2.67;1.08;;;19.50;90.90;;;;;;10361031;28;20081;-67
2021/08/24 18:11:35;;;;;;;3.80;0.70;;;19.30;91.50;;;;;;10365412;28;20049;-66
2021/08/24 18:16:37;;;;;;;2.08;0.70;;;19.10;92.00;;;;;;10357840;28;20050;-67
2021/08/24 18:21:39;;;;;;;2.78;0.90;;;18.90;92.00;;;;;;10365916;28;20061;-67
2021/08/24 18:26:41;;;;;;;1.42;0.60;;;18.70;92.50;;;;;;10359396;28;20062;-68
2021/08/24 18:31:42;;;;;;;1.77;0.50;;;18.50;92.50;;;;;;10361271;28;20481;-66
2021/08/24 18:36:44;;;;;;;2.75;0.90;;;18.30;92.60;;;;;;10361680;28;20049;-66
2021/08/24 18:41:46;;;;;;;3.17;0.60;;;18.20;93.30;;;;;;10362156;28;20128;-67
2021/08/24 18:46:48;;;;;;;2.90;0.80;;;18.00;93.70;;;;;;10353312;28;20041;-66
2021/08/24 18:51:49;;;;;;;4.63;1.00;;;17.80;93.90;;;;;;10358351;28;21524;-67
2021/08/24 19:03:07;;;;;;;4.72;0.60;;;17.50;94.80;;;;;;10363663;28;20045;-68
2021/08/24 19:08:09;;;;;;;2.50;0.85;;;17.30;95.20;;;;;;10377846;28;20396;-69
2021/08/24 19:13:13;;;;;;;4.95;0.70;;;17.20;95.90;;;;;;10363519;28;20046;-68
2021/08/24 19:18:15;;;;;;;3.10;0.82;;;17.00;95.80;;;;;;10377821;28;20428;-68
2021/08/24 19:23:20;;;;;;;3.85;1.15;;;16.90;96.40;;;;;;10385708;28;20128;-69
2021/08/24 19:28:23;;;;;;;3.58;0.90;;;16.80;96.30;;;;;;10361433;28;20056;-68
2021/08/24 19:33:24;;;;;;;5.45;1.00;;;16.70;96.90;;;;;;10357986;28;20054;-68
2021/08/24 19:38:26;;;;;;;4.18;0.68;;;16.60;97.10;;;;;;10364309;28;20492;-69
2021/08/24 19:43:28;;;;;;;2.40;1.00;;;16.50;97.20;;;;;;10360146;28;20480;-69
2021/08/24 19:48:29;;;;;;;5.05;0.80;;;16.40;97.40;;;;;;10363408;28;20080;-67
2021/08/24 19:53:31;;;;;;;1.45;0.50;;;16.30;97.70;;;;;;10362447;28;20111;-69
2021/08/24 19:58:34;;;;;;;3.38;1.25;;;16.20;97.40;;;;;;10361557;28;20197;-68
2021/08/24 20:03:39;;;;;;;1.20;0.60;;;16.20;97.80;;;;;;10357483;28;20131;-69
2021/08/24 20:08:42;;;;;;;3.40;0.90;;;16.10;98.30;;;;;;10366435;28;20042;-69
2021/08/24 20:13:44;;;;;;;4.05;0.70;;;16.10;98.50;;;;;;10371509;28;20056;-68
2021/08/24 20:18:46;;;;;;;4.72;0.65;;;16.00;98.90;;;;;;10365834;28;20049;-68
2021/08/24 20:23:48;;;;;;;2.45;0.65;;;15.90;99.30;;;;;;10369103;28;20060;-69
2021/08/24 20:28:52;;;;;;;1.63;0.60;;;15.80;99.50;;;;;;10374133;28;20069;-69
2021/08/24 20:33:54;;;;;;;2.88;0.70;;;15.70;99.60;;;;;;10367309;28;20156;-69
2021/08/24 20:38:56;;;;;;;3.47;0.60;;;15.70;99.90;;;;;;10360140;28;20075;-69
2021/08/24 20:43:58;;;;;;;1.35;0.60;;;15.60;99.90;;;;;;10363520;28;20123;-69
2021/08/24 20:49:01;;;;;;;2.75;0.98;;;15.50;99.90;;;;;;10373563;28;20096;-68
2021/08/24 20:54:03;;;;;;;4.90;0.73;;;15.50;99.90;;;;;;10369498;28;20442;-69
2021/08/24 20:59:08;;;;;;;2.40;0.75;;;15.40;99.90;;;;;;10364391;28;20160;-69
2021/08/24 21:04:11;;;;;;;1.98;0.70;;;15.40;99.90;;;;;;10366743;28;20511;-68
2021/08/24 21:09:16;;;;;;;3.25;0.98;;;15.30;99.90;;;;;;10351645;28;20130;-69
2021/08/24 21:14:19;;;;;;;3.22;0.82;;;15.30;99.90;;;;;;10365838;28;20072;-68
2021/08/24 21:19:21;;;;;;;5.95;0.93;;;15.20;99.90;;;;;;10366945;28;20717;-68
2021/08/24 21:24:23;;;;;;;3.13;0.70;;;15.10;99.90;;;;;;10365947;28;20717;-67
2021/08/24 21:29:25;;;;;;;2.92;1.23;;;15.10;99.90;;;;;;10366455;28;20124;-69
2021/08/24 21:34:26;;;;;;;1.17;0.63;;;15.00;99.90;;;;;;10370494;28;20042;-69
2021/08/24 21:39:28;;;;;;;2.33;0.60;;;14.90;99.90;;;;;;10369724;28;20065;-69
2021/08/24 21:44:30;;;;;;;1.83;0.90;;;14.90;99.90;;;;;;10367111;28;20563;-67
2021/08/24 21:49:31;;;;;;;3.47;0.80;;;14.80;99.90;;;;;;10365640;28;20798;-68
2021/08/24 21:54:34;;;;;;;5.07;1.33;;;14.80;99.90;;;;;;10366034;28;20058;-67
2021/08/24 21:59:36;;;;;;;2.22;0.70;;;14.70;99.90;;;;;;10372501;28;20111;-67
2021/08/24 22:04:38;;;;;;;2.42;0.68;;;14.50;99.90;;;;;;10367185;28;20464;-67
2021/08/24 22:09:40;;;;;;;6.93;1.25;;;14.40;99.90;;;;;;10365038;28;20560;-67
2021/08/24 22:14:42;;;;;;;4.90;0.80;;;14.30;99.90;;;;;;10362453;28;20544;-67
2021/08/24 22:19:44;;;;;;;2.55;0.90;;;14.20;99.90;;;;;;10363720;28;20515;-67
2021/08/24 22:24:45;;;;;;;3.17;0.80;;;14.10;99.90;;;;;;10364144;28;20078;-67
2021/08/24 22:29:47;;;;;;;2.67;1.35;;;14.10;99.90;;;;;;10363910;28;20064;-67
2021/08/24 22:34:48;;;;;;;3.55;1.27;;;14.00;99.90;;;;;;10364380;28;20124;-67
2021/08/24 22:39:50;;;;;;;8.20;1.67;;;14.00;99.90;;;;;;10361989;28;20084;-67
2021/08/24 22:44:52;;;;;;;4.10;1.25;;;13.90;99.90;;;;;;10382240;28;20600;-67
2021/08/24 22:49:54;;;;;;;1.73;0.93;;;13.90;99.90;;;;;;10365281;28;20057;-67
2021/08/24 22:54:55;;;;;;;4.90;0.90;;;13.90;99.90;;;;;;10362618;28;20065;-67
2021/08/24 22:59:57;;;;;;;2.10;0.80;;;13.90;99.90;;;;;;10370845;28;20050;-67
2021/08/24 23:04:59;;;;;;;2.25;1.20;;;13.90;99.90;;;;;;10364484;28;20049;-67
2021/08/24 23:10:02;;;;;;;2.10;0.70;;;13.80;99.90;;;;;;10361999;28;20131;-67
2021/08/24 23:15:04;;;;;;;4.30;0.90;;;13.80;99.90;;;;;;10362137;28;20057;-67
2021/08/24 23:20:07;;;;;;;10.20;1.30;;;13.80;99.90;;;;;;10370401;28;20127;-67
2021/08/24 23:25:10;;;;;;;2.05;0.98;;;13.80;99.90;;;;;;10363587;28;20049;-67
2021/08/24 23:30:12;;;;;;;9.73;1.98;;;13.80;99.90;;;;;;10363042;28;20123;-67
2021/08/24 23:35:14;;;;;;;2.67;1.05;;;13.70;99.90;;;;;;10368049;28;20053;-67
2021/08/24 23:40:16;;;;;;;2.97;1.38;;;13.60;99.90;;;;;;10361569;28;20053;-67
2021/08/24 23:45:17;;;;;;;3.10;1.00;;;13.50;99.90;;;;;;10373205;28;20463;-67
2021/08/24 23:50:19;;;;;;;4.03;1.27;;;13.50;99.90;;;;;;10370998;28;20108;-67
2021/08/24 23:55:23;;;;;;;7.68;1.90;;;13.40;99.90;;;;;;10372848;28;20049;-67
